Time;durP1;ratioP1;P1;durP2;ratioP2;P2;SDS_P1;SDS_P2;PMS_P1;PMS_P2;Temp;Humidity;BMP_temperature;BMP_pressure;BME280_temperature;BME280_humidity;BME280_pressure;Samples;Min_cycle;Max_cycle;Signal;HPM_P1;HPM_P2
2022/08/30 00:03:05;;;;;;;3.20;0.70;;;15.40;99.90;;;;;;5055913;28;20574;-73
2022/08/30 00:05:31;;;;;;;2.53;0.52;;;15.50;99.90;;;;;;5055240;28;20486;-73
2022/08/30 00:07:57;;;;;;;2.30;0.55;;;15.50;99.90;;;;;;5055148;28;20025;-73
2022/08/30 00:10:23;;;;;;;3.15;0.30;;;15.40;99.90;;;;;;5055453;28;20382;-73
2022/08/30 00:12:49;;;;;;;2.03;0.30;;;15.40;99.90;;;;;;5055246;28;20025;-73
2022/08/30 00:15:16;;;;;;;4.72;0.40;;;15.40;99.90;;;;;;5055369;28;20390;-73
2022/08/30 00:17:42;;;;;;;2.85;0.20;;;15.30;99.90;;;;;;5055156;28;20098;-73
2022/08/30 00:20:10;;;;;;;2.55;0.40;;;15.30;99.90;;;;;;5055141;28;20017;-73
2022/08/30 00:22:36;;;;;;;1.90;0.20;;;15.30;99.90;;;;;;5054897;28;20033;-73
2022/08/30 00:25:02;;;;;;;3.83;0.90;;;15.20;99.90;;;;;;5054742;28;20096;-73
2022/08/30 00:27:28;;;;;;;0.90;0.60;;;15.30;99.90;;;;;;5054273;28;20112;-73
2022/08/30 00:29:54;;;;;;;4.53;0.80;;;15.20;99.90;;;;;;5036407;28;20025;-73
2022/08/30 00:32:20;;;;;;;1.60;0.68;;;15.20;99.90;;;;;;5054439;28;20074;-73
2022/08/30 00:34:47;;;;;;;1.25;0.50;;;15.20;99.90;;;;;;5054397;28;20021;-73
2022/08/30 00:37:13;;;;;;;3.40;0.93;;;15.20;99.90;;;;;;5054357;28;20025;-73
2022/08/30 00:39:39;;;;;;;2.45;0.65;;;15.20;99.90;;;;;;5036642;28;20439;-73
2022/08/30 00:42:04;;;;;;;2.38;0.60;;;15.10;99.90;;;;;;5036581;28;20120;-73
2022/08/30 00:44:30;;;;;;;3.50;0.82;;;15.10;99.90;;;;;;5054160;28;20417;-73
2022/08/30 00:46:56;;;;;;;1.17;0.60;;;15.10;99.90;;;;;;5054513;28;20490;-73
2022/08/30 00:49:22;;;;;;;4.32;0.30;;;15.10;99.90;;;;;;5054394;28;20041;-73
2022/08/30 00:51:48;;;;;;;4.97;0.75;;;15.10;99.90;;;;;;5054136;28;20021;-73
2022/08/30 00:54:13;;;;;;;3.35;0.50;;;15.10;99.90;;;;;;5054360;28;20021;-73
2022/08/30 00:56:39;;;;;;;3.17;0.52;;;15.00;99.90;;;;;;5054133;28;20118;-73
2022/08/30 00:59:06;;;;;;;2.17;0.65;;;15.00;99.90;;;;;;5054426;28;20481;-73
2022/08/30 01:01:32;;;;;;;3.08;0.70;;;15.00;99.90;;;;;;5054660;28;20044;-73
2022/08/30 01:03:59;;;;;;;1.98;0.88;;;15.00;99.90;;;;;;5054091;28;20438;-73
2022/08/30 01:06:27;;;;;;;1.55;0.47;;;15.00;99.90;;;;;;5054140;28;20051;-73
2022/08/30 01:08:53;;;;;;;1.42;0.38;;;15.00;99.90;;;;;;5054631;28;20031;-73
2022/08/30 01:11:22;;;;;;;1.38;0.50;;;15.00;99.90;;;;;;5054019;28;20036;-73
2022/08/30 01:13:51;;;;;;;1.83;0.85;;;14.90;99.90;;;;;;5035746;28;20052;-73
2022/08/30 01:16:17;;;;;;;2.22;0.90;;;14.90;99.90;;;;;;5053738;28;20025;-73
2022/08/30 01:18:43;;;;;;;1.77;0.60;;;14.90;99.90;;;;;;5053710;28;20029;-73
2022/08/30 01:21:42;;;;;;;5.47;0.90;;;14.90;99.90;;;;;;5053711;28;20021;-73
2022/08/30 01:24:08;;;;;;;7.28;1.60;;;14.90;99.90;;;;;;5042686;28;20033;-73
2022/08/30 01:26:35;;;;;;;4.85;0.50;;;14.90;99.90;;;;;;5036200;28;20117;-73
2022/08/30 01:29:08;;;;;;;3.60;0.40;;;14.90;99.90;;;;;;5053877;28;20096;-73
2022/08/30 01:31:35;;;;;;;1.00;0.63;;;14.90;99.90;;;;;;5053533;28;20499;-73
2022/08/30 01:34:03;;;;;;;2.25;0.65;;;14.90;99.90;;;;;;5035514;28;20060;-73
2022/08/30 01:36:29;;;;;;;2.60;0.90;;;14.80;99.90;;;;;;5035616;28;20025;-73
2022/08/30 01:38:56;;;;;;;1.65;0.75;;;14.70;99.90;;;;;;5053411;28;20017;-73
2022/08/30 01:41:27;;;;;;;3.88;0.77;;;14.70;99.90;;;;;;5053192;28;20060;-73
2022/08/30 01:43:55;;;;;;;3.15;0.63;;;14.60;99.90;;;;;;5053200;28;20028;-73
2022/08/30 01:46:23;;;;;;;2.67;1.00;;;14.60;99.90;;;;;;5053805;28;20116;-73
2022/08/30 01:48:49;;;;;;;2.85;0.80;;;14.60;99.90;;;;;;5058458;22;20033;-75
2022/08/30 01:51:15;;;;;;;2.88;0.77;;;14.60;99.90;;;;;;5033284;28;20030;-75
2022/08/30 01:53:44;;;;;;;5.88;1.00;;;14.60;99.90;;;;;;5032656;28;20025;-75
2022/08/30 01:56:10;;;;;;;2.67;1.00;;;14.50;99.90;;;;;;5033715;28;20025;-75
2022/08/30 01:58:38;;;;;;;3.35;1.30;;;14.50;99.90;;;;;;5033633;28;20057;-75
2022/08/30 02:01:07;;;;;;;4.82;1.35;;;14.50;99.90;;;;;;5034007;28;20032;-75
2022/08/30 02:03:34;;;;;;;8.60;2.05;;;14.50;99.90;;;;;;5015906;28;20124;-75
2022/08/30 02:06:04;;;;;;;2.30;1.15;;;14.50;99.90;;;;;;5015666;28;20049;-75
2022/08/30 02:08:30;;;;;;;2.90;1.30;;;14.50;99.90;;;;;;5033195;28;20125;-75
2022/08/30 02:10:58;;;;;;;3.65;1.80;;;14.50;99.90;;;;;;5033242;28;20074;-75
2022/08/30 02:13:23;;;;;;;1.98;1.30;;;14.50;99.90;;;;;;5033113;28;20028;-75
2022/08/30 02:15:49;;;;;;;2.10;1.27;;;14.50;99.90;;;;;;5033227;28;20096;-75
2022/08/30 02:18:14;;;;;;;4.45;1.50;;;14.40;99.90;;;;;;5035441;28;20060;-75
2022/08/30 02:20:40;;;;;;;6.95;2.03;;;14.40;99.90;;;;;;5019437;28;20021;-75
2022/08/30 02:23:06;;;;;;;5.20;2.00;;;14.40;99.90;;;;;;5037112;28;20021;-75
2022/08/30 02:25:31;;;;;;;3.63;1.80;;;14.40;99.90;;;;;;5037143;28;20493;-75
2022/08/30 02:27:57;;;;;;;4.20;1.95;;;14.40;99.90;;;;;;5037555;28;20163;-75
2022/08/30 02:30:23;;;;;;;2.20;1.50;;;14.40;99.90;;;;;;5019887;28;20045;-75
2022/08/30 02:32:48;;;;;;;2.47;1.30;;;14.40;99.90;;;;;;5019571;28;20033;-74
2022/08/30 02:35:14;;;;;;;2.97;1.38;;;14.40;99.90;;;;;;5019513;28;20013;-74
2022/08/30 02:37:40;;;;;;;2.65;1.17;;;14.30;99.90;;;;;;5037050;28;20028;-75
2022/08/30 02:40:06;;;;;;;3.47;1.38;;;14.30;99.90;;;;;;5036925;28;20029;-75
2022/08/30 02:42:33;;;;;;;2.47;1.60;;;14.30;99.90;;;;;;5037128;28;20026;-75
2022/08/30 02:44:59;;;;;;;4.32;1.85;;;14.20;99.90;;;;;;5036733;28;20421;-75
2022/08/30 02:47:25;;;;;;;5.32;1.35;;;14.20;99.90;;;;;;5036783;28;20018;-75
2022/08/30 02:49:50;;;;;;;6.13;2.30;;;14.10;99.90;;;;;;5036736;28;20034;-75
2022/08/30 02:52:16;;;;;;;2.30;1.30;;;14.10;99.90;;;;;;5036636;28;20025;-75
2022/08/30 02:54:41;;;;;;;6.00;2.22;;;14.10;99.90;;;;;;5036412;28;20028;-75
2022/08/30 02:57:07;;;;;;;2.50;1.98;;;14.10;99.90;;;;;;5036564;28;20033;-75
2022/08/30 02:59:36;;;;;;;4.70;1.90;;;14.10;99.90;;;;;;5036582;28;20425;-74
2022/08/30 03:02:02;;;;;;;;;;;14.00;99.90;;;;;;5037038;28;20547;-75
2022/08/30 03:04:28;;;;;;;3.58;1.50;;;14.00;99.90;;;;;;5036974;28;20000;-75
2022/08/30 03:06:54;;;;;;;3.15;2.28;;;13.90;99.90;;;;;;5018780;28;20033;-75
2022/08/30 03:09:19;;;;;;;4.43;2.15;;;13.90;99.90;;;;;;5018778;28;20029;-75
2022/08/30 03:11:45;;;;;;;6.18;2.95;;;13.90;99.90;;;;;;5036671;28;20534;-75
2022/08/30 03:14:11;;;;;;;3.25;1.77;;;13.90;99.90;;;;;;5036356;28;20025;-75
2022/08/30 03:16:38;;;;;;;4.60;2.60;;;13.90;99.90;;;;;;5018454;28;20018;-75
2022/08/30 03:19:03;;;;;;;5.43;2.67;;;13.90;99.90;;;;;;5018508;28;20032;-75
2022/08/30 03:21:29;;;;;;;7.10;2.63;;;13.90;99.90;;;;;;5036297;28;20382;-74
2022/08/30 03:23:55;;;;;;;3.42;2.67;;;13.90;99.90;;;;;;5036182;28;20048;-74
2022/08/30 03:26:20;;;;;;;4.57;2.38;;;14.20;99.90;;;;;;5036066;28;20052;-74
2022/08/30 03:28:46;;;;;;;4.13;2.65;;;13.90;99.90;;;;;;5035997;28;20018;-74
2022/08/30 03:31:14;;;;;;;3.35;2.33;;;13.90;99.90;;;;;;5036109;28;20065;-73
2022/08/30 03:33:40;;;;;;;5.25;2.33;;;13.90;99.90;;;;;;5035686;28;20018;-74
2022/08/30 03:36:08;;;;;;;5.85;2.72;;;13.90;99.90;;;;;;5018257;28;20026;-74
2022/08/30 03:38:37;;;;;;;5.95;3.10;;;13.90;99.90;;;;;;5018467;28;20022;-74
2022/08/30 03:41:04;;;;;;;4.50;2.95;;;13.90;99.90;;;;;;5036510;28;20032;-74
2022/08/30 03:43:32;;;;;;;6.72;3.20;;;14.00;99.90;;;;;;5017862;28;20121;-74
2022/08/30 03:46:00;;;;;;;3.38;2.17;;;14.00;99.90;;;;;;5035853;28;20034;-74
2022/08/30 03:48:26;;;;;;;4.83;3.00;;;14.00;99.90;;;;;;5035837;28;20068;-73
2022/08/30 03:50:52;;;;;;;5.15;3.10;;;14.10;99.90;;;;;;5018021;28;20053;-74
2022/08/30 03:53:18;;;;;;;5.10;3.10;;;14.10;99.90;;;;;;5035585;28;20064;-74
2022/08/30 03:55:44;;;;;;;4.72;3.03;;;14.10;99.90;;;;;;5017970;28;20453;-74
2022/08/30 03:58:10;;;;;;;7.57;3.33;;;14.10;99.90;;;;;;5035652;28;20029;-74
2022/08/30 04:00:36;;;;;;;5.60;2.38;;;14.10;99.90;;;;;;5017798;28;20021;-74
2022/08/30 04:03:02;;;;;;;7.20;2.92;;;14.10;99.90;;;;;;5017825;28;20025;-74
2022/08/30 04:05:28;;;;;;;4.78;3.22;;;14.10;99.90;;;;;;5035389;28;20064;-74
2022/08/30 04:07:54;;;;;;;5.57;3.20;;;14.10;99.90;;;;;;5035983;28;20109;-74
2022/08/30 04:10:20;;;;;;;4.68;3.35;;;14.10;99.90;;;;;;5035284;28;20446;-74
2022/08/30 04:12:47;;;;;;;5.03;2.95;;;14.10;99.90;;;;;;5017444;28;20044;-74
2022/08/30 04:15:14;;;;;;;5.45;3.50;;;14.10;99.90;;;;;;5035236;28;20432;-74
2022/08/30 04:17:40;;;;;;;5.28;3.42;;;14.10;99.90;;;;;;5017347;28;20018;-74
2022/08/30 04:20:07;;;;;;;7.65;3.63;;;14.10;99.90;;;;;;5035043;28;20024;-74
2022/08/30 04:22:35;;;;;;;12.25;3.97;;;14.10;99.90;;;;;;5034937;28;20110;-74
2022/08/30 04:25:02;;;;;;;4.73;3.50;;;14.10;99.90;;;;;;5034986;28;20501;-74
2022/08/30 04:27:27;;;;;;;6.82;3.53;;;14.10;99.90;;;;;;5035128;28;20745;-74
2022/08/30 04:29:55;;;;;;;4.35;3.42;;;14.10;99.90;;;;;;5035034;28;20028;-74
2022/08/30 04:32:20;;;;;;;6.80;3.03;;;14.10;99.90;;;;;;5035481;28;20148;-74
2022/08/30 04:34:46;;;;;;;5.38;3.60;;;14.10;99.90;;;;;;5034942;28;20486;-74
2022/08/30 04:37:12;;;;;;;5.18;3.28;;;14.10;99.90;;;;;;5034710;28;20022;-74
2022/08/30 04:39:38;;;;;;;5.18;3.50;;;14.10;99.90;;;;;;5017025;28;20022;-74
2022/08/30 04:42:04;;;;;;;5.80;3.60;;;14.10;99.90;;;;;;5034444;28;20451;-74
2022/08/30 04:44:31;;;;;;;5.63;3.65;;;14.10;99.90;;;;;;5034848;28;20494;-74
2022/08/30 04:46:57;;;;;;;5.68;3.53;;;14.10;99.90;;;;;;5016928;28;20088;-74
2022/08/30 04:49:24;;;;;;;5.97;3.78;;;14.10;99.90;;;;;;5034504;28;20099;-74
2022/08/30 04:51:50;;;;;;;5.13;3.30;;;14.20;99.90;;;;;;5034434;28;20420;-74
2022/08/30 04:54:16;;;;;;;4.68;3.50;;;14.20;99.90;;;;;;5034250;28;20163;-74
2022/08/30 04:56:42;;;;;;;7.70;3.63;;;14.30;99.90;;;;;;5034395;28;20052;-74
2022/08/30 04:59:08;;;;;;;7.80;3.85;;;14.30;99.90;;;;;;5034548;28;20029;-74
2022/08/30 05:01:34;;;;;;;6.10;3.30;;;14.30;99.90;;;;;;5034138;28;20033;-73
2022/08/30 05:04:00;;;;;;;8.30;3.50;;;14.30;99.90;;;;;;5034303;28;20108;-74
2022/08/30 05:06:28;;;;;;;4.63;2.80;;;14.40;99.90;;;;;;5034689;28;20029;-73
2022/08/30 05:08:54;;;;;;;7.00;3.53;;;14.40;99.90;;;;;;5034733;28;20056;-73
2022/08/30 05:11:21;;;;;;;5.38;3.05;;;14.40;99.90;;;;;;5017006;28;20017;-73
2022/08/30 05:13:48;;;;;;;7.70;4.18;;;14.50;99.90;;;;;;5034592;28;20053;-73
2022/08/30 05:16:16;;;;;;;6.22;3.70;;;14.40;99.90;;;;;;5034259;28;20096;-73
2022/08/30 05:18:43;;;;;;;6.77;3.53;;;14.50;99.90;;;;;;5035002;28;20439;-73
2022/08/30 05:21:14;;;;;;;8.10;3.42;;;14.50;99.90;;;;;;5034129;28;20272;-73
2022/08/30 05:23:41;;;;;;;7.30;4.00;;;14.50;99.90;;;;;;5034467;28;20032;-73
2022/08/30 05:26:11;;;;;;;7.07;3.17;;;14.60;99.90;;;;;;5034100;28;20018;-73
2022/08/30 05:28:37;;;;;;;5.60;3.25;;;14.70;99.90;;;;;;5016267;28;20021;-73
2022/08/30 05:31:31;;;;;;;5.72;3.70;;;14.70;99.90;;;;;;5016099;28;20034;-73
2022/08/30 05:33:57;;;;;;;7.20;3.60;;;14.70;99.90;;;;;;5015456;28;20091;-73
2022/08/30 05:36:27;;;;;;;6.72;3.55;;;14.70;99.90;;;;;;5034202;28;20105;-74
2022/08/30 05:38:54;;;;;;;3.38;2.40;;;14.80;99.90;;;;;;5016057;28;20017;-74
2022/08/30 05:41:22;;;;;;;7.40;3.15;;;14.80;99.90;;;;;;5033844;28;20530;-74
2022/08/30 05:43:48;;;;;;;4.25;2.85;;;14.90;99.90;;;;;;5033359;28;20056;-74
2022/08/30 05:46:18;;;;;;;3.30;2.72;;;14.90;99.90;;;;;;5033519;28;20030;-74
2022/08/30 05:48:45;;;;;;;4.10;2.70;;;14.90;99.90;;;;;;5015667;28;20041;-74
2022/08/30 05:51:13;;;;;;;3.42;2.42;;;15.00;99.90;;;;;;5033551;28;20029;-74
2022/08/30 05:53:40;;;;;;;6.47;3.65;;;15.10;99.90;;;;;;5032732;28;20092;-74
2022/08/30 05:56:09;;;;;;;5.88;2.65;;;15.10;99.90;;;;;;5033844;28;20025;-74
2022/08/30 05:58:35;;;;;;;5.32;3.25;;;15.20;99.90;;;;;;5033722;28;20021;-74
2022/08/30 06:01:02;;;;;;;6.28;2.55;;;15.20;99.90;;;;;;5033267;28;20049;-75
2022/08/30 06:03:28;;;;;;;5.50;3.00;;;15.30;99.90;;;;;;5033163;28;20099;-74
2022/08/30 06:05:54;;;;;;;4.38;2.10;;;15.40;99.90;;;;;;5015863;28;20057;-75
2022/08/30 06:08:20;;;;;;;3.95;1.88;;;15.50;99.90;;;;;;5033350;28;20032;-74
2022/08/30 06:10:46;;;;;;;4.70;2.20;;;15.80;99.90;;;;;;5015268;28;20029;-74
2022/08/30 06:13:13;;;;;;;5.95;2.22;;;15.70;99.90;;;;;;5015542;28;20013;-74
2022/08/30 06:15:39;;;;;;;4.75;2.33;;;15.70;99.90;;;;;;5033209;28;20032;-74
2022/08/30 06:18:05;;;;;;;8.35;1.88;;;15.80;99.90;;;;;;5033137;28;20051;-74
2022/08/30 06:20:31;;;;;;;6.70;1.67;;;15.80;99.90;;;;;;5033415;28;20021;-74
2022/08/30 06:22:57;;;;;;;5.40;2.00;;;15.90;99.90;;;;;;5033747;28;20044;-74
2022/08/30 06:25:22;;;;;;;6.30;1.90;;;15.90;99.90;;;;;;5033220;28;20021;-74
2022/08/30 06:27:48;;;;;;;3.58;1.48;;;16.00;99.90;;;;;;5015305;28;20033;-74
2022/08/30 06:30:14;;;;;;;2.70;1.52;;;16.10;99.90;;;;;;5015506;28;20069;-75
2022/08/30 06:32:40;;;;;;;2.95;1.90;;;16.20;99.90;;;;;;5033075;28;20039;-74
2022/08/30 06:35:06;;;;;;;9.88;1.70;;;16.30;99.90;;;;;;5015516;28;20482;-73
2022/08/30 06:37:33;;;;;;;1.83;0.90;;;16.40;99.90;;;;;;5033012;28;20028;-74
2022/08/30 06:39:59;;;;;;;2.67;1.35;;;16.40;99.90;;;;;;5015238;28;20497;-75
2022/08/30 06:42:30;;;;;;;3.00;1.20;;;16.50;99.90;;;;;;5033513;28;20060;-74
2022/08/30 06:45:00;;;;;;;2.17;1.60;;;16.60;99.90;;;;;;5015377;28;20483;-75
2022/08/30 06:47:27;;;;;;;2.38;1.05;;;16.70;99.90;;;;;;5033030;28;20390;-75
2022/08/30 06:49:53;;;;;;;2.33;1.20;;;16.90;99.90;;;;;;5032983;28;20398;-75
2022/08/30 06:52:19;;;;;;;4.07;1.50;;;16.90;99.90;;;;;;5033113;28;20026;-75
2022/08/30 06:54:46;;;;;;;5.57;0.90;;;17.00;99.90;;;;;;5032911;28;20459;-74
2022/08/30 06:57:11;;;;;;;2.35;0.90;;;17.10;99.90;;;;;;5014952;28;20029;-74
2022/08/30 06:59:38;;;;;;;1.50;0.82;;;17.20;99.90;;;;;;5033046;28;20034;-74
2022/08/30 07:02:04;;;;;;;2.55;0.73;;;17.40;99.90;;;;;;5015047;28;20022;-74
2022/08/30 07:04:30;;;;;;;4.43;0.90;;;17.40;99.90;;;;;;5017285;28;20026;-75
2022/08/30 07:06:56;;;;;;;1.05;0.85;;;17.50;99.90;;;;;;5036373;28;20028;-75
2022/08/30 07:09:22;;;;;;;3.55;0.57;;;17.50;99.90;;;;;;5036354;28;20029;-75
2022/08/30 07:11:47;;;;;;;0.98;0.30;;;17.60;99.90;;;;;;5018483;28;20107;-75
2022/08/30 07:14:13;;;;;;;1.73;0.47;;;17.70;99.90;;;;;;5036267;28;20133;-75
2022/08/30 07:16:39;;;;;;;2.38;0.20;;;17.80;99.90;;;;;;5037234;28;20045;-74
2022/08/30 07:19:05;;;;;;;1.27;0.30;;;17.80;99.90;;;;;;5036487;28;20419;-74
2022/08/30 07:21:35;;;;;;;3.10;0.50;;;17.90;99.90;;;;;;5018367;28;20040;-75
2022/08/30 07:24:02;;;;;;;1.20;0.00;;;17.90;99.90;;;;;;5036566;28;20043;-75
2022/08/30 07:26:32;;;;;;;0.20;0.10;;;18.00;99.90;;;;;;5018365;28;20040;-75
2022/08/30 07:28:57;;;;;;;1.65;0.40;;;18.10;99.90;;;;;;5018173;28;20037;-75
2022/08/30 07:31:24;;;;;;;2.78;0.10;;;18.20;99.90;;;;;;5035902;28;20117;-75
2022/08/30 07:33:51;;;;;;;0.70;0.20;;;18.30;99.90;;;;;;5036162;28;20018;-75
2022/08/30 07:36:18;;;;;;;2.22;0.20;;;18.50;99.90;;;;;;5018986;28;20017;-73
2022/08/30 07:38:46;;;;;;;2.97;0.20;;;18.60;99.90;;;;;;5018820;28;20033;-74
2022/08/30 07:41:34;;;;;;;2.88;0.00;;;18.70;99.90;;;;;;5036167;28;20148;-74
2022/08/30 07:44:00;;;;;;;0.50;0.10;;;18.70;99.90;;;;;;5036135;28;20425;-74
2022/08/30 07:46:26;;;;;;;3.10;0.63;;;18.90;99.90;;;;;;5035490;28;20108;-74
2022/08/30 07:48:53;;;;;;;0.40;0.10;;;19.00;99.90;;;;;;5035459;28;20049;-74
2022/08/30 07:51:23;;;;;;;1.63;0.15;;;19.10;99.90;;;;;;5035388;28;20112;-74
2022/08/30 07:53:49;;;;;;;0.32;0.00;;;19.20;99.90;;;;;;5035690;28;20013;-74
2022/08/30 07:56:15;;;;;;;2.55;0.00;;;19.20;99.90;;;;;;5035460;28;20022;-76
2022/08/30 07:58:41;;;;;;;0.85;0.03;;;19.40;99.90;;;;;;5035297;28;20040;-74
2022/08/30 08:01:08;;;;;;;2.30;0.13;;;19.50;99.90;;;;;;5017529;28;20478;-74
2022/08/30 08:03:35;;;;;;;1.48;0.10;;;19.50;99.90;;;;;;5035164;28;20395;-74
2022/08/30 08:06:05;;;;;;;0.70;0.00;;;19.70;99.90;;;;;;5017286;28;20017;-74
2022/08/30 08:08:31;;;;;;;0.35;0.00;;;19.80;99.90;;;;;;5035535;28;20453;-74
2022/08/30 08:11:04;;;;;;;4.07;0.00;;;19.80;99.90;;;;;;5017488;28;20030;-74
2022/08/30 08:13:29;;;;;;;0.98;0.00;;;19.90;99.90;;;;;;5035715;28;20018;-74
2022/08/30 08:15:55;;;;;;;0.40;0.00;;;20.10;99.90;;;;;;5034268;28;20446;-74
2022/08/30 08:18:20;;;;;;;0.17;0.00;;;20.10;99.90;;;;;;5035231;28;20029;-75
2022/08/30 08:20:46;;;;;;;3.13;0.00;;;20.20;99.90;;;;;;5034991;28;20389;-75
2022/08/30 08:23:11;;;;;;;0.20;0.08;;;20.20;99.90;;;;;;5035398;28;20385;-75
2022/08/30 08:25:39;;;;;;;0.55;0.00;;;20.30;99.90;;;;;;5035345;28;20033;-75
2022/08/30 08:28:05;;;;;;;0.90;0.00;;;20.40;99.90;;;;;;5017286;28;20029;-75
2022/08/30 08:30:34;;;;;;;0.00;0.00;;;20.50;99.90;;;;;;5035038;28;20459;-75
2022/08/30 08:32:59;;;;;;;0.50;0.00;;;20.50;99.90;;;;;;5016801;28;20026;-75
2022/08/30 08:35:25;;;;;;;0.57;0.00;;;20.60;99.90;;;;;;5017093;28;20133;-76
2022/08/30 08:37:51;;;;;;;0.80;0.30;;;20.60;99.90;;;;;;5034965;28;20092;-76
2022/08/30 08:40:18;;;;;;;1.20;0.00;;;20.70;99.90;;;;;;5034572;28;20053;-75
2022/08/30 08:42:57;;;;;;;0.55;0.00;;;20.80;99.90;;;;;;5016812;28;20087;-75
2022/08/30 08:45:46;;;;;;;0.52;0.00;;;20.90;99.90;;;;;;5034894;28;20033;-75
2022/08/30 08:48:27;;;;;;;0.05;0.00;;;21.00;99.90;;;;;;5034823;28;20060;-75
2022/08/30 08:53:38;;;;;;;0.32;0.00;;;21.30;99.90;;;;;;5034728;28;20402;-76
2022/08/30 08:56:11;;;;;;;0.85;0.15;;;21.40;99.60;;;;;;5034389;28;20024;-76
2022/08/30 08:58:50;;;;;;;0.10;0.00;;;21.50;99.80;;;;;;5034191;28;20032;-75
2022/08/30 09:01:18;;;;;;;0.15;0.00;;;21.60;99.90;;;;;;5016577;28;20067;-75
2022/08/30 09:03:45;;;;;;;0.45;0.00;;;21.70;98.60;;;;;;5016335;28;20025;-75
2022/08/30 09:06:40;;;;;;;0.10;0.00;;;21.70;98.60;;;;;;5034094;28;20108;-75
2022/08/30 09:09:06;;;;;;;0.55;0.00;;;21.80;98.80;;;;;;4982756;28;20033;-77
2022/08/30 09:11:36;;;;;;;1.10;0.03;;;21.90;98.40;;;;;;5034561;28;20032;-76
2022/08/30 09:14:07;;;;;;;0.20;0.00;;;21.90;97.90;;;;;;5016543;28;20022;-75
2022/08/30 09:16:49;;;;;;;0.95;0.10;;;22.10;98.10;;;;;;5034002;28;20417;-77
2022/08/30 09:19:34;;;;;;;0.00;0.00;;;22.20;96.70;;;;;;5033731;28;20022;-77
2022/08/30 09:22:04;;;;;;;0.88;0.00;;;22.30;96.00;;;;;;5033857;28;20030;-77
2022/08/30 09:24:50;;;;;;;0.00;0.00;;;22.30;95.00;;;;;;5034002;28;20033;-77
2022/08/30 09:27:27;;;;;;;2.80;0.00;;;22.40;94.70;;;;;;5034407;28;20087;-77
2022/08/30 09:29:59;;;;;;;0.75;0.00;;;22.30;93.50;;;;;;5034042;28;20032;-76
2022/08/30 09:32:29;;;;;;;1.65;0.30;;;22.40;93.30;;;;;;5033710;28;20113;-76
2022/08/30 09:34:55;;;;;;;0.95;0.00;;;22.40;93.00;;;;;;5033946;28;20429;-76
2022/08/30 09:37:29;;;;;;;0.20;0.00;;;22.40;92.20;;;;;;5033599;28;20017;-76
2022/08/30 09:39:55;;;;;;;0.00;0.00;;;22.30;92.30;;;;;;5033893;28;20391;-76
2022/08/30 09:42:25;;;;;;;0.15;0.00;;;22.30;92.00;;;;;;5033992;28;20052;-76
2022/08/30 09:44:53;;;;;;;5.57;0.00;;;22.30;91.70;;;;;;5034001;28;20025;-76
2022/08/30 09:47:30;;;;;;;0.88;0.20;;;22.30;91.60;;;;;;5033989;28;20029;-75
2022/08/30 09:50:23;;;;;;;0.30;0.00;;;22.40;91.70;;;;;;5033990;28;20402;-75
2022/08/30 09:53:13;;;;;;;0.40;0.00;;;22.60;91.50;;;;;;5025375;28;20486;-76
2022/08/30 09:56:08;;;;;;;1.92;0.43;;;22.60;91.00;;;;;;5033408;28;20379;-76
2022/08/30 09:58:52;;;;;;;1.20;0.00;;;22.70;90.50;;;;;;5033492;28;20075;-76
2022/08/30 10:01:28;;;;;;;2.75;0.05;;;22.80;91.40;;;;;;5033399;28;20445;-73
2022/08/30 10:04:01;;;;;;;0.98;0.10;;;23.00;90.90;;;;;;5033351;28;20486;-73
2022/08/30 10:06:44;;;;;;;1.95;0.20;;;23.10;88.70;;;;;;5033865;28;20029;-73
2022/08/30 10:09:23;;;;;;;2.10;0.15;;;23.10;89.10;;;;;;5033374;28;20049;-73
2022/08/30 10:12:13;;;;;;;0.45;0.00;;;23.20;88.80;;;;;;5033772;28;20108;-76
2022/08/30 10:14:59;;;;;;;1.13;0.00;;;23.40;88.80;;;;;;5033450;28;20026;-76
2022/08/30 10:18:10;;;;;;;0.98;0.15;;;23.60;87.70;;;;;;5033793;28;20478;-76
2022/08/30 10:20:54;;;;;;;0.00;0.00;;;23.60;85.00;;;;;;5033307;28;20022;-76
2022/08/30 10:23:27;;;;;;;1.75;0.10;;;23.70;83.60;;;;;;5033556;28;20022;-74
2022/08/30 10:26:11;;;;;;;0.68;0.00;;;23.70;85.20;;;;;;5015483;28;20029;-73
2022/08/30 10:28:46;;;;;;;0.43;0.00;;;23.60;83.30;;;;;;5015443;28;20414;-73
2022/08/30 10:31:27;;;;;;;0.70;0.00;;;23.60;83.10;;;;;;5015328;28;20026;-76
2022/08/30 10:33:59;;;;;;;0.75;0.10;;;23.60;82.80;;;;;;5032956;28;20033;-76
2022/08/30 10:36:36;;;;;;;0.55;0.00;;;23.80;82.50;;;;;;5033313;28;20018;-76
2022/08/30 10:39:02;;;;;;;0.00;0.00;;;23.90;83.20;;;;;;5017096;28;20053;-76
2022/08/30 10:41:37;;;;;;;0.43;0.00;;;24.00;83.10;;;;;;5036810;28;20029;-76
2022/08/30 10:44:25;;;;;;;1.13;0.22;;;24.10;82.90;;;;;;5036751;28;20040;-76
2022/08/30 10:47:22;;;;;;;0.40;0.10;;;24.30;83.20;;;;;;5036875;28;20029;-76
2022/08/30 10:49:54;;;;;;;1.63;0.35;;;24.50;82.50;;;;;;5036541;28;20049;-76
2022/08/30 10:52:21;;;;;;;0.63;0.00;;;24.70;81.70;;;;;;5036830;28;20479;-76
2022/08/30 10:54:50;;;;;;;1.02;0.00;;;24.70;79.70;;;;;;5019235;28;20021;-76
2022/08/30 10:57:17;;;;;;;1.45;0.00;;;24.80;81.50;;;;;;5019135;28;20014;-76
2022/08/30 11:00:05;;;;;;;2.25;0.00;;;25.00;82.30;;;;;;5036788;28;20021;-76
2022/08/30 11:02:34;;;;;;;0.68;0.00;;;25.00;80.00;;;;;;5006859;28;20053;-76
2022/08/30 11:05:18;;;;;;;0.00;0.00;;;25.00;79.60;;;;;;5036800;28;20469;-76
2022/08/30 11:08:26;;;;;;;2.30;0.13;;;25.10;80.30;;;;;;5036993;28;20033;-76
2022/08/30 11:11:05;;;;;;;0.95;0.05;;;25.20;79.20;;;;;;5036928;28;20462;-76
2022/08/30 11:13:33;;;;;;;;;;;25.30;78.60;;;;;;5036694;28;20030;-76
2022/08/30 11:16:10;;;;;;;1.98;0.00;;;25.40;78.40;;;;;;5036268;28;19905;-76
2022/08/30 11:18:46;;;;;;;1.65;0.20;;;25.30;78.90;;;;;;5018571;28;20064;-76
2022/08/30 11:21:37;;;;;;;2.17;0.00;;;25.50;76.90;;;;;;5018448;28;20494;-76
2022/08/30 11:24:18;;;;;;;0.90;0.00;;;25.50;78.30;;;;;;5036305;28;20423;-76
2022/08/30 11:26:43;;;;;;;0.95;0.00;;;25.70;78.50;;;;;;5036290;28;20152;-76
2022/08/30 11:29:42;;;;;;;2.20;0.17;;;25.80;76.40;;;;;;5018203;28;20484;-76
2022/08/30 11:32:10;;;;;;;1.05;0.00;;;25.90;76.50;;;;;;5035789;28;20063;-76
2022/08/30 11:34:45;;;;;;;0.10;0.00;;;26.10;75.60;;;;;;5036606;28;20089;-76
2022/08/30 11:37:34;;;;;;;0.10;0.00;;;26.10;74.20;;;;;;5018063;28;20036;-76
2022/08/30 11:40:16;;;;;;;0.10;0.00;;;26.20;72.20;;;;;;5035855;28;20509;-76
2022/08/30 11:42:45;;;;;;;0.90;0.10;;;26.20;72.80;;;;;;5035751;28;20034;-76
2022/08/30 11:45:22;;;;;;;0.75;0.00;;;26.20;70.90;;;;;;5035940;28;20029;-76
2022/08/30 11:47:49;;;;;;;0.20;0.00;;;26.20;73.40;;;;;;5035701;28;20553;-76
2022/08/30 11:51:00;;;;;;;1.65;0.00;;;26.50;71.10;;;;;;5034697;28;20072;-74
2022/08/30 11:53:46;;;;;;;1.65;0.00;;;26.70;70.00;;;;;;4975285;28;20488;-73
2022/08/30 11:56:27;;;;;;;1.55;0.00;;;26.70;69.10;;;;;;5031768;28;20037;-74
2022/08/30 11:58:52;;;;;;;0.00;0.00;;;26.60;68.30;;;;;;5018353;28;20093;-74
2022/08/30 12:01:24;;;;;;;0.73;0.08;;;26.60;70.20;;;;;;5017680;28;20049;-76
2022/08/30 12:04:01;;;;;;;1.08;0.00;;;26.70;69.10;;;;;;5035246;28;20104;-76
2022/08/30 12:06:39;;;;;;;0.98;0.00;;;26.90;70.30;;;;;;5017565;28;20422;-76
2022/08/30 12:09:09;;;;;;;2.42;0.10;;;27.20;68.70;;;;;;5035305;28;20108;-76
2022/08/30 12:11:34;;;;;;;2.17;0.00;;;27.10;68.40;;;;;;5017400;28;20033;-76
2022/08/30 12:14:03;;;;;;;3.60;0.00;;;26.90;67.80;;;;;;5035032;28;20109;-76
2022/08/30 12:18:26;;;;;;;1.95;0.40;;;26.80;67.10;;;;;;5035306;28;20377;-76
2022/08/30 12:19:29;;;;;;;2.17;0.43;;;26.80;67.60;;;;;;5034821;28;20454;-76
2022/08/30 12:22:07;;;;;;;2.57;0.00;;;26.90;67.90;;;;;;5035036;28;20057;-76
2022/08/30 12:24:42;;;;;;;2.50;0.00;;;27.10;69.40;;;;;;5034977;28;20021;-76
2022/08/30 12:27:21;;;;;;;5.55;0.40;;;27.30;68.70;;;;;;5034858;28;20495;-76
2022/08/30 12:29:55;;;;;;;4.85;0.00;;;27.50;66.80;;;;;;5035424;28;20025;-76
2022/08/30 12:32:22;;;;;;;6.13;0.40;;;27.60;65.30;;;;;;5034999;28;20108;-76
2022/08/30 12:34:49;;;;;;;1.77;0.10;;;27.70;64.50;;;;;;5034628;28;20028;-76
2022/08/30 12:37:37;;;;;;;9.98;0.10;;;27.60;66.20;;;;;;5034540;28;20072;-76
2022/08/30 12:40:17;;;;;;;1.98;0.10;;;27.80;63.90;;;;;;5034688;28;20025;-76
2022/08/30 12:42:59;;;;;;;1.95;0.00;;;28.00;64.60;;;;;;5016824;28;20025;-76
2022/08/30 12:45:30;;;;;;;0.47;0.00;;;28.20;65.30;;;;;;5034785;28;20029;-76
2022/08/30 12:48:09;;;;;;;1.00;0.00;;;28.20;63.80;;;;;;5016826;28;20502;-76
2022/08/30 12:51:00;;;;;;;0.45;0.00;;;28.20;62.20;;;;;;5034488;28;20079;-76
2022/08/30 12:53:36;;;;;;;7.03;0.00;;;28.10;63.00;;;;;;5034411;28;20529;-76
2022/08/30 12:56:03;;;;;;;3.60;0.00;;;28.10;62.50;;;;;;5034360;28;20028;-76
2022/08/30 12:58:48;;;;;;;0.30;0.00;;;28.00;61.50;;;;;;5034527;28;20421;-76
2022/08/30 13:01:27;;;;;;;0.88;0.00;;;27.90;62.70;;;;;;5034014;28;20021;-76
2022/08/30 13:03:57;;;;;;;3.65;0.25;;;27.70;61.00;;;;;;5016529;28;20382;-76
2022/08/30 13:06:43;;;;;;;0.20;0.00;;;27.70;61.90;;;;;;5034213;28;20100;-76
2022/08/30 13:09:20;;;;;;;1.48;0.00;;;27.70;63.50;;;;;;5034129;28;20406;-76